La Paz, Honduras
Current Conditions -  °F | °C
As of 5:00 PM on Wednesday 26 Nov 2014 (Local Time) from MHTG Reporting Station
Drizzle Drizzle  
Wind Chill: 68°   Ceiling: 2400
Heat Index: 68°   Visibility: 4mi
Dew Point: 66°   Wind: 21mph
Humidity: 94%   Direction: 360°N
Pressure: 30.09"   Gusts: NA
Location:  14.2°N, 87.4°W
Report Text: MHTG 262300Z 36018KT 6000 -DZ FEW010 BKN024 20/19 Q1019 A3009NOSIG
Loading
Personal Weather Stations






























Interactive Weather Map New forecast layout! Learn more

10-Day Weather Forecast

Advertisements
Track Severe Weather on mobile